Date,TemperatureHighF,TemperatureAvgF,TemperatureLowF,DewpointHighF,DewpointAvgF,DewpointLowF,HumidityHigh,HumidityAvg,HumidityLow,PressureMaxIn,PressureMinIn,WindSpeedMaxMPH,WindSpeedAvgMPH,GustSpeedMaxMPH,PrecipitationSumIn
2013-3-1,39.0,32.9,27.3,33.0,28.8,26.0,100,85,64,29.29,29.13,17,4,19,0.00
2013-3-2,36.5,32.0,26.3,28.0,26.0,23.0,90,78,63,29.28,29.23,26,6,26,0.00
2013-3-3,35.6,29.4,24.6,29.0,24.7,23.0,91,80,69,29.26,29.17,16,4,17,0.02
2013-3-4,33.3,28.7,25.3,26.0,22.7,21.0,84,76,65,29.40,29.21,14,4,18,0.00
2013-3-5,41.9,31.5,25.4,29.0,25.4,21.0,90,76,56,29.65,29.40,20,3,21,0.01
2013-3-6,37.5,34.5,30.3,31.0,27.8,23.0,92,76,62,29.77,29.64,25,5,30,0.00
2013-3-7,37.9,33.8,30.0,29.0,24.6,23.0,90,68,59,29.75,29.65,18,6,20,0.00
2013-3-8,42.8,33.2,26.4,29.0,25.5,21.0,96,74,44,29.83,29.63,19,5,23,0.05
2013-3-9,54.1,33.9,18.0,35.0,22.5,16.0,100,69,23,29.90,29.80,11,1,12,0.00
2013-3-10,54.6,37.6,20.7,36.0,25.4,18.0,98,66,28,29.95,29.77,14,2,15,0.00
2013-3-11,45.8,40.9,33.8,37.0,31.4,28.0,83,69,55,29.81,29.63,14,3,20,0.00
2013-3-12,49.5,45.1,41.2,49.0,43.4,38.0,100,94,78,29.64,29.26,12,2,12,0.96
2013-3-13,44.4,37.9,27.2,41.0,32.8,24.0,100,82,55,29.38,29.30,15,2,15,0.00
2013-3-14,32.5,26.7,17.9,29.0,17.3,8.0,98,66,45,29.43,29.26,25,5,25,0.01
2013-3-15,35.1,25.0,13.8,29.0,14.7,4.0,94,63,35,29.44,29.15,18,4,22,0.00
2013-3-16,31.0,26.1,19.4,23.0,15.0,11.0,86,62,41,29.45,29.26,16,3,16,0.01
2013-3-17,28.5,22.6,14.5,23.0,9.1,0.0,91,55,33,29.88,29.44,29,5,30,0.01
2013-3-18,34.5,22.6,7.3,18.0,6.8,0.0,90,51,25,30.00,29.75,12,1,15,0.00
2013-3-19,32.5,28.2,26.0,29.0,25.9,21.0,97,90,70,29.75,29.28,16,2,17,0.00
2013-3-20,34.0,28.5,23.8,29.0,24.1,18.0,97,82,59,29.30,29.23,18,3,20,0.12
2013-3-21,39.5,27.3,12.1,28.0,16.0,11.0,99,65,31,29.33,29.17,14,2,14,0.12
2013-3-22,36.7,27.4,15.5,28.0,19.3,14.0,96,72,44,29.29,29.18,16,2,16,0.04
2013-3-23,38.9,31.5,23.5,28.0,21.4,18.0,89,65,43,29.35,29.21,23,4,23,0.00
2013-3-24,41.2,34.2,25.5,26.0,23.3,21.0,86,63,45,29.42,29.34,23,4,23,0.00
2013-3-25,43.8,32.5,21.0,31.0,23.6,18.0,96,72,46,29.37,29.12,17,2,17,0.00
2013-3-26,45.9,37.0,28.1,31.0,24.0,18.0,89,60,33,29.37,29.16,19,4,22,0.00
2013-3-27,47.7,36.6,23.0,36.0,26.4,21.0,98,69,39,29.49,29.34,28,4,28,0.00
2013-3-28,48.4,38.4,31.8,39.0,32.4,28.0,99,80,46,29.61,29.48,16,2,21,0.00
2013-3-29,48.9,38.9,29.2,40.0,31.6,28.0,97,77,48,29.64,29.57,17,2,20,0.00
2013-3-30,50.9,38.7,26.7,38.0,23.6,14.0,100,61,22,29.67,29.60,21,3,24,0.00
2013-3-31,54.8,39.5,21.7,38.0,24.9,18.0,97,61,26,29.68,29.33,23,4,26,0.06